Airfield :
LOGIN :

Register | Disclaimer

   EN    FR    IT 

 










Legend :    VFR   Marginal VFR   IFR   Intensive IFR   Very Intensive IFR
Visi :
Ceiling :
>= 8 km
>= 3000ft
5 to 8 km
1000 to 3000 ft
1500m to 5 km
500 to 1000 ft
800 to 1500m
200 to 500 ft
< 800m
< 200 ft
Symbols :   Thunderstorms  Fog  Heavy snow  Heavy precipitations  Wind > 20 kt
SIGMETs :     Misc.  Thunderstorms  Icing  Turbulence  Mountain Waves  Volcanic Ashes






- Airport Elevation : 604 ft
- IATA code : LCJ


EPLL - Lodz

CURRENT METAR :
  • 211930Z 25013KT CAVOK 01/M03 Q1032

EXPIRED METARs :
  • 211900Z 24013KT CAVOK 01/M03 Q1032
  • 211830Z 23011KT CAVOK 01/M03 Q1032
  • 211800Z 25012KT CAVOK 02/M03 Q1033
  • 211730Z 26013KT CAVOK 02/M02 Q1033
  • 211700Z 24012KT CAVOK 02/M02 Q1033

TAF TAF EPLL
Valid from the 21 at 18:00 until the 22 at 18:00 UTC


211730Z 2118/2218 26011KT CAVOK
BECMG 2120/2122 BKN012
BECMG 2122/2124 4500 BR BKN008
TEMPO 2202/2212 2000 -RASN -RA BR BKN003
PROB40
TEMPO 2203/2215 28017G32KT
BECMG 2213/2216 9999 BKN025



MET'MAP, your aeronautical weather chart ! - Copyright ORBIFLY December 2007 - Disclaimer

ORBIFLY MET'MAP TEAM :

Programming & Development : Alexandra Zaïnal
Concept & original design : Baudouin d'Aumeries
Assistance for programming : Marc-Olivier Méhu
Technical & hardware support : Manuel Goepfert

Contact : metmap@orbifly.com




SOURCES & CREDITS :

   NOAA